sensor_id;sensor_type;location;lat;lon;timestamp;pressure;altitude;pressure_sealevel;temperature;humidity
6387;BME280;3226;42.162;24.756;2023-06-14T00:02:09;99315.53;;;19.65;100.00
6387;BME280;3226;42.162;24.756;2023-06-14T00:04:37;99311.97;;;19.52;100.00
6387;BME280;3226;42.162;24.756;2023-06-14T00:07:09;99307.16;;;19.40;100.00
6387;BME280;3226;42.162;24.756;2023-06-14T00:09:40;99312.09;;;19.43;100.00
6387;BME280;3226;42.162;24.756;2023-06-14T00:12:09;99306.75;;;19.36;100.00
6387;BME280;3226;42.162;24.756;2023-06-14T00:14:37;99304.38;;;19.48;100.00
6387;BME280;3226;42.162;24.756;2023-06-14T00:17:17;99301.97;;;19.54;100.00
6387;BME280;3226;42.162;24.756;2023-06-14T00:19:45;99298.69;;;19.58;100.00
6387;BME280;3226;42.162;24.756;2023-06-14T00:22:15;99305.09;;;19.64;100.00
6387;BME280;3226;42.162;24.756;2023-06-14T00:24:43;99311.66;;;19.40;100.00
6387;BME280;3226;42.162;24.756;2023-06-14T00:27:11;99305.56;;;19.46;100.00
6387;BME280;3226;42.162;24.756;2023-06-14T00:29:39;99309.69;;;19.48;100.00
6387;BME280;3226;42.162;24.756;2023-06-14T00:32:08;99304.38;;;19.48;100.00
6387;BME280;3226;42.162;24.756;2023-06-14T00:34:36;99306.03;;;19.56;100.00
6387;BME280;3226;42.162;24.756;2023-06-14T00:37:04;99303.63;;;19.61;100.00
6387;BME280;3226;42.162;24.756;2023-06-14T00:39:34;99303.63;;;19.61;100.00
6387;BME280;3226;42.162;24.756;2023-06-14T00:42:02;99305.28;;;19.62;100.00
6387;BME280;3226;42.162;24.756;2023-06-14T00:44:30;99300.66;;;19.43;100.00
6387;BME280;3226;42.162;24.756;2023-06-14T00:46:58;99289.56;;;19.32;100.00
6387;BME280;3226;42.162;24.756;2023-06-14T00:49:26;99293.88;;;19.40;100.00
6387;BME280;3226;42.162;24.756;2023-06-14T00:51:54;99286.13;;;19.39;100.00
6387;BME280;3226;42.162;24.756;2023-06-14T00:54:23;99287.28;;;19.29;100.00
6387;BME280;3226;42.162;24.756;2023-06-14T00:56:52;99286.53;;;19.14;100.00
6387;BME280;3226;42.162;24.756;2023-06-14T00:59:20;99288.56;;;19.12;100.00
6387;BME280;3226;42.162;24.756;2023-06-14T01:01:48;99286.41;;;19.22;100.00
6387;BME280;3226;42.162;24.756;2023-06-14T01:04:16;99289.94;;;19.29;100.00
6387;BME280;3226;42.162;24.756;2023-06-14T01:06:49;99273.34;;;19.20;100.00
6387;BME280;3226;42.162;24.756;2023-06-14T01:09:27;99287.78;;;19.11;100.00
6387;BME280;3226;42.162;24.756;2023-06-14T01:12:08;99288.88;;;19.02;100.00
6387;BME280;3226;42.162;24.756;2023-06-14T01:14:39;99283.91;;;18.92;100.00
6387;BME280;3226;42.162;24.756;2023-06-14T01:17:09;99287.03;;;18.81;100.00
6387;BME280;3226;42.162;24.756;2023-06-14T01:19:43;99279.34;;;18.86;100.00
6387;BME280;3226;42.162;24.756;2023-06-14T01:22:12;99290.84;;;18.93;100.00
6387;BME280;3226;42.162;24.756;2023-06-14T01:24:42;99285.53;;;18.93;100.00
6387;BME280;3226;42.162;24.756;2023-06-14T01:27:12;99286.03;;;18.82;100.00
6387;BME280;3226;42.162;24.756;2023-06-14T01:29:42;99261.91;;;18.76;100.00
6387;BME280;3226;42.162;24.756;2023-06-14T01:32:13;99281.09;;;18.78;100.00
6387;BME280;3226;42.162;24.756;2023-06-14T01:34:41;99285.91;;;18.90;100.00
6387;BME280;3226;42.162;24.756;2023-06-14T01:37:10;99286.16;;;18.73;100.00
6387;BME280;3226;42.162;24.756;2023-06-14T01:39:41;99284.16;;;18.75;100.00
6387;BME280;3226;42.162;24.756;2023-06-14T01:42:12;99270.72;;;18.77;100.00
6387;BME280;3226;42.162;24.756;2023-06-14T01:44:42;99262.69;;;18.70;100.00
6387;BME280;3226;42.162;24.756;2023-06-14T01:47:10;99282.22;;;18.91;100.00
6387;BME280;3226;42.162;24.756;2023-06-14T01:49:39;99274.28;;;18.91;100.00
6387;BME280;3226;42.162;24.756;2023-06-14T01:52:07;99278.91;;;18.82;100.00
6387;BME280;3226;42.162;24.756;2023-06-14T01:54:36;99276.63;;;18.79;100.00
6387;BME280;3226;42.162;24.756;2023-06-14T01:57:10;99281.31;;;18.77;100.00
6387;BME280;3226;42.162;24.756;2023-06-14T01:59:38;99265.00;;;18.58;100.00
6387;BME280;3226;42.162;24.756;2023-06-14T02:02:06;99278.59;;;18.70;100.00
6387;BME280;3226;42.162;24.756;2023-06-14T02:04:34;99283.75;;;18.78;100.00
6387;BME280;3226;42.162;24.756;2023-06-14T02:07:02;99278.31;;;18.87;100.00
6387;BME280;3226;42.162;24.756;2023-06-14T02:09:30;99278.53;;;18.85;100.00
6387;BME280;3226;42.162;24.756;2023-06-14T02:11:58;99284.66;;;18.64;100.00
6387;BME280;3226;42.162;24.756;2023-06-14T02:14:27;99286.34;;;18.72;100.00
6387;BME280;3226;42.162;24.756;2023-06-14T02:16:55;99285.53;;;18.71;100.00
6387;BME280;3226;42.162;24.756;2023-06-14T02:19:23;99280.59;;;18.68;100.00
6387;BME280;3226;42.162;24.756;2023-06-14T02:21:52;99284.56;;;18.57;100.00
6387;BME280;3226;42.162;24.756;2023-06-14T02:24:20;99270.59;;;18.48;100.00
6387;BME280;3226;42.162;24.756;2023-06-14T02:26:50;99275.91;;;18.48;100.00
6387;BME280;3226;42.162;24.756;2023-06-14T02:29:18;99283.47;;;18.30;100.00
6387;BME280;3226;42.162;24.756;2023-06-14T02:31:47;99282.09;;;18.34;100.00
6387;BME280;3226;42.162;24.756;2023-06-14T02:34:16;99293.88;;;18.31;100.00
6387;BME280;3226;42.162;24.756;2023-06-14T02:36:44;99294.63;;;18.25;100.00
6387;BME280;3226;42.162;24.756;2023-06-14T02:39:14;99291.53;;;18.22;100.00
6387;BME280;3226;42.162;24.756;2023-06-14T02:41:43;99294.47;;;18.12;100.00
6387;BME280;3226;42.162;24.756;2023-06-14T02:44:12;99299.69;;;18.05;100.00
6387;BME280;3226;42.162;24.756;2023-06-14T02:46:41;99295.47;;;17.96;100.00
6387;BME280;3226;42.162;24.756;2023-06-14T02:49:11;99301.16;;;18.08;100.00
6387;BME280;3226;42.162;24.756;2023-06-14T02:51:39;99289.69;;;18.22;100.00
6387;BME280;3226;42.162;24.756;2023-06-14T02:54:07;99288.81;;;18.37;100.00
6387;BME280;3226;42.162;24.756;2023-06-14T02:56:36;99291.56;;;18.43;100.00
6387;BME280;3226;42.162;24.756;2023-06-14T02:59:03;99282.09;;;18.34;100.00
6387;BME280;3226;42.162;24.756;2023-06-14T03:01:32;99299.88;;;18.40;100.00
6387;BME280;3226;42.162;24.756;2023-06-14T03:04:02;99309.75;;;18.46;100.00
6387;BME280;3226;42.162;24.756;2023-06-14T03:06:32;99309.38;;;18.49;100.00
6387;BME280;3226;42.162;24.756;2023-06-14T03:09:00;99312.22;;;18.48;100.00
6387;BME280;3226;42.162;24.756;2023-06-14T03:11:31;99306.09;;;18.47;100.00
6387;BME280;3226;42.162;24.756;2023-06-14T03:14:00;99301.91;;;18.38;100.00
6387;BME280;3226;42.162;24.756;2023-06-14T03:16:30;99315.78;;;18.40;100.00
6387;BME280;3226;42.162;24.756;2023-06-14T03:18:58;99325.00;;;18.44;100.00
6387;BME280;3226;42.162;24.756;2023-06-14T03:21:26;99331.69;;;18.40;100.00
6387;BME280;3226;42.162;24.756;2023-06-14T03:23:56;99322.56;;;18.43;100.00
6387;BME280;3226;42.162;24.756;2023-06-14T03:26:24;99319.97;;;18.49;100.00
6387;BME280;3226;42.162;24.756;2023-06-14T03:28:52;99321.88;;;18.56;100.00
6387;BME280;3226;42.162;24.756;2023-06-14T03:31:20;99322.69;;;18.56;100.00
6387;BME280;3226;42.162;24.756;2023-06-14T03:33:48;99328.09;;;18.63;100.00
6387;BME280;3226;42.162;24.756;2023-06-14T03:36:16;99332.94;;;18.59;100.00
6387;BME280;3226;42.162;24.756;2023-06-14T03:38:44;99336.84;;;18.63;100.00
6387;BME280;3226;42.162;24.756;2023-06-14T03:41:13;99335.84;;;18.64;100.00
6387;BME280;3226;42.162;24.756;2023-06-14T03:43:41;99335.28;;;18.69;100.00
6387;BME280;3226;42.162;24.756;2023-06-14T03:46:10;99317.63;;;18.40;100.00
6387;BME280;3226;42.162;24.756;2023-06-14T03:48:38;99344.00;;;18.63;100.00
6387;BME280;3226;42.162;24.756;2023-06-14T03:51:06;99351.59;;;18.66;100.00
6387;BME280;3226;42.162;24.756;2023-06-14T03:53:34;99358.78;;;18.72;100.00
6387;BME280;3226;42.162;24.756;2023-06-14T03:56:10;99332.94;;;18.59;100.00
6387;BME280;3226;42.162;24.756;2023-06-14T03:58:39;99359.66;;;18.79;100.00
6387;BME280;3226;42.162;24.756;2023-06-14T04:01:08;99354.06;;;18.53;100.00
6387;BME280;3226;42.162;24.756;2023-06-14T04:03:36;99352.41;;;18.52;100.00
6387;BME280;3226;42.162;24.756;2023-06-14T04:06:05;99353.44;;;18.50;100.00
6387;BME280;3226;42.162;24.756;2023-06-14T04:08:34;99360.00;;;18.55;100.00
6387;BME280;3226;42.162;24.756;2023-06-14T04:11:03;99358.66;;;18.59;100.00
6387;BME280;3226;42.162;24.756;2023-06-14T04:13:31;99350.13;;;18.63;100.00
6387;BME280;3226;42.162;24.756;2023-06-14T04:16:03;99365.81;;;18.80;100.00
6387;BME280;3226;42.162;24.756;2023-06-14T04:18:31;99367.84;;;18.78;100.00
6387;BME280;3226;42.162;24.756;2023-06-14T04:20:59;99363.06;;;18.73;100.00
6387;BME280;3226;42.162;24.756;2023-06-14T04:23:27;99366.44;;;18.82;100.00
6387;BME280;3226;42.162;24.756;2023-06-14T04:25:55;99353.44;;;18.87;100.00
6387;BME280;3226;42.162;24.756;2023-06-14T04:28:28;99363.66;;;18.90;100.00
6387;BME280;3226;42.162;24.756;2023-06-14T04:30:57;99361.56;;;18.86;100.00
6387;BME280;3226;42.162;24.756;2023-06-14T04:33:29;99365.47;;;18.90;100.00
6387;BME280;3226;42.162;24.756;2023-06-14T04:35:58;99363.19;;;19.02;100.00
6387;BME280;3226;42.162;24.756;2023-06-14T04:38:26;99337.75;;;18.92;100.00
6387;BME280;3226;42.162;24.756;2023-06-14T04:40:55;99360.44;;;19.10;100.00
6387;BME280;3226;42.162;24.756;2023-06-14T04:43:23;99369.28;;;19.17;100.00
6387;BME280;3226;42.162;24.756;2023-06-14T04:45:52;99374.56;;;19.17;100.00
6387;BME280;3226;42.162;24.756;2023-06-14T04:48:23;99372.47;;;19.13;100.00
6387;BME280;3226;42.162;24.756;2023-06-14T04:50:52;99374.63;;;19.02;100.00
6387;BME280;3226;42.162;24.756;2023-06-14T04:53:20;99371.69;;;19.12;100.00
6387;BME280;3226;42.162;24.756;2023-06-14T04:55:49;99370.34;;;19.01;100.00
6387;BME280;3226;42.162;24.756;2023-06-14T04:58:18;99377.47;;;18.86;100.00
6387;BME280;3226;42.162;24.756;2023-06-14T05:00:46;99379.66;;;18.97;100.00
6387;BME280;3226;42.162;24.756;2023-06-14T05:03:14;99384.19;;;19.18;100.00
6387;BME280;3226;42.162;24.756;2023-06-14T05:05:42;99384.22;;;19.25;100.00
6387;BME280;3226;42.162;24.756;2023-06-14T05:08:12;99388.47;;;19.19;100.00
6387;BME280;3226;42.162;24.756;2023-06-14T05:10:40;99393.09;;;19.32;100.00
6387;BME280;3226;42.162;24.756;2023-06-14T05:13:08;99388.28;;;19.21;100.00
6387;BME280;3226;42.162;24.756;2023-06-14T05:15:37;99379.69;;;19.19;100.00
6387;BME280;3226;42.162;24.756;2023-06-14T05:18:05;99385.50;;;19.29;100.00
6387;BME280;3226;42.162;24.756;2023-06-14T05:20:35;99384.94;;;19.34;100.00
6387;BME280;3226;42.162;24.756;2023-06-14T05:23:04;99393.91;;;19.33;100.00
6387;BME280;3226;42.162;24.756;2023-06-14T05:25:33;99411.16;;;19.22;100.00
6387;BME280;3226;42.162;24.756;2023-06-14T05:28:02;99408.31;;;19.24;100.00
6387;BME280;3226;42.162;24.756;2023-06-14T05:30:30;99405.09;;;19.28;100.00
6387;BME280;3226;42.162;24.756;2023-06-14T05:33:00;99410.97;;;19.45;100.00
6387;BME280;3226;42.162;24.756;2023-06-14T05:35:28;99418.19;;;19.52;100.00
6387;BME280;3226;42.162;24.756;2023-06-14T05:37:56;99412.41;;;19.48;100.00
6387;BME280;3226;42.162;24.756;2023-06-14T05:40:24;99410.38;;;19.50;100.00
6387;BME280;3226;42.162;24.756;2023-06-14T05:42:54;99397.81;;;19.37;100.00
6387;BME280;3226;42.162;24.756;2023-06-14T05:45:22;99423.72;;;19.57;100.00
6387;BME280;3226;42.162;24.756;2023-06-14T05:47:50;99412.91;;;19.58;100.00
6387;BME280;3226;42.162;24.756;2023-06-14T05:50:18;99425.69;;;19.70;100.00
6387;BME280;3226;42.162;24.756;2023-06-14T05:52:46;99425.16;;;19.59;100.00
6387;BME280;3226;42.162;24.756;2023-06-14T05:55:16;99423.97;;;19.62;100.00
6387;BME280;3226;42.162;24.756;2023-06-14T05:57:44;99435.53;;;19.76;100.00
6387;BME280;3226;42.162;24.756;2023-06-14T06:00:15;99440.28;;;19.81;100.00
6387;BME280;3226;42.162;24.756;2023-06-14T06:02:44;99425.47;;;19.93;100.00
6387;BME280;3226;42.162;24.756;2023-06-14T06:05:13;99435.16;;;20.07;100.00
6387;BME280;3226;42.162;24.756;2023-06-14T06:07:42;99431.47;;;19.80;100.00
6387;BME280;3226;42.162;24.756;2023-06-14T06:10:11;99431.22;;;19.75;100.00
6387;BME280;3226;42.162;24.756;2023-06-14T06:12:40;99425.00;;;19.89;100.00
6387;BME280;3226;42.162;24.756;2023-06-14T06:15:09;99428.75;;;19.95;100.00
6387;BME280;3226;42.162;24.756;2023-06-14T06:17:40;99426.41;;;20.14;100.00
6387;BME280;3226;42.162;24.756;2023-06-14T06:20:22;99409.06;;;20.18;100.00
6387;BME280;3226;42.162;24.756;2023-06-14T06:22:55;99429.84;;;20.36;100.00
6387;BME280;3226;42.162;24.756;2023-06-14T06:25:25;99415.91;;;20.34;100.00
6387;BME280;3226;42.162;24.756;2023-06-14T06:27:54;99434.19;;;20.50;100.00
6387;BME280;3226;42.162;24.756;2023-06-14T06:30:23;99431.44;;;20.72;98.74
6387;BME280;3226;42.162;24.756;2023-06-14T06:32:53;99418.81;;;20.88;97.28
6387;BME280;3226;42.162;24.756;2023-06-14T06:35:22;99434.22;;;21.19;94.23
6387;BME280;3226;42.162;24.756;2023-06-14T06:37:50;99427.50;;;21.30;93.71
6387;BME280;3226;42.162;24.756;2023-06-14T06:40:18;99442.03;;;21.21;94.23
6387;BME280;3226;42.162;24.756;2023-06-14T06:42:46;99450.38;;;20.98;93.56
6387;BME280;3226;42.162;24.756;2023-06-14T06:45:15;99446.25;;;20.95;93.54
6387;BME280;3226;42.162;24.756;2023-06-14T06:47:43;99445.03;;;20.91;94.22
6387;BME280;3226;42.162;24.756;2023-06-14T06:50:12;99438.72;;;21.12;93.84
6387;BME280;3226;42.162;24.756;2023-06-14T06:52:40;99437.53;;;21.21;92.67
6387;BME280;3226;42.162;24.756;2023-06-14T06:55:09;99443.47;;;21.17;92.61
6387;BME280;3226;42.162;24.756;2023-06-14T06:57:38;99449.63;;;21.24;91.23
6387;BME280;3226;42.162;24.756;2023-06-14T07:00:07;99449.41;;;21.19;94.03
6387;BME280;3226;42.162;24.756;2023-06-14T07:02:36;99449.38;;;21.05;92.57
6387;BME280;3226;42.162;24.756;2023-06-14T07:05:05;99444.28;;;21.11;92.93
6387;BME280;3226;42.162;24.756;2023-06-14T07:07:35;99445.84;;;20.98;95.24
6387;BME280;3226;42.162;24.756;2023-06-14T07:10:04;99452.84;;;21.06;95.08
6387;BME280;3226;42.162;24.756;2023-06-14T07:12:32;99440.50;;;20.85;92.94
6387;BME280;3226;42.162;24.756;2023-06-14T07:15:06;99443.47;;;21.17;91.02
6387;BME280;3226;42.162;24.756;2023-06-14T07:17:35;99437.34;;;21.30;91.06
6387;BME280;3226;42.162;24.756;2023-06-14T07:20:05;99448.81;;;21.30;93.18
6387;BME280;3226;42.162;24.756;2023-06-14T07:22:41;99438.72;;;21.12;94.20
6387;BME280;3226;42.162;24.756;2023-06-14T07:25:11;99437.13;;;21.18;94.68
6387;BME280;3226;42.162;24.756;2023-06-14T07:27:41;99445.13;;;21.25;93.25
6387;BME280;3226;42.162;24.756;2023-06-14T07:30:10;99439.34;;;21.14;93.10
6387;BME280;3226;42.162;24.756;2023-06-14T07:32:38;99439.63;;;20.77;94.62
6387;BME280;3226;42.162;24.756;2023-06-14T07:35:07;99442.16;;;20.92;92.37
6387;BME280;3226;42.162;24.756;2023-06-14T07:37:35;99431.97;;;21.09;92.75
6387;BME280;3226;42.162;24.756;2023-06-14T07:40:06;99435.22;;;20.98;89.99
6387;BME280;3226;42.162;24.756;2023-06-14T07:42:35;99432.97;;;21.02;89.09
6387;BME280;3226;42.162;24.756;2023-06-14T07:45:03;99436.44;;;20.96;87.56
6387;BME280;3226;42.162;24.756;2023-06-14T07:47:32;99442.25;;;21.33;85.32
6387;BME280;3226;42.162;24.756;2023-06-14T07:50:00;99431.81;;;21.38;84.16
6387;BME280;3226;42.162;24.756;2023-06-14T07:52:28;99430.81;;;21.59;84.29
6387;BME280;3226;42.162;24.756;2023-06-14T07:54:57;99437.41;;;21.70;82.94
6387;BME280;3226;42.162;24.756;2023-06-14T07:57:27;99432.47;;;21.67;82.17
6387;BME280;3226;42.162;24.756;2023-06-14T07:59:55;99430.81;;;21.73;81.92
6387;BME280;3226;42.162;24.756;2023-06-14T08:02:23;99435.53;;;21.71;80.75
6387;BME280;3226;42.162;24.756;2023-06-14T08:04:52;99429.59;;;21.82;80.44
6387;BME280;3226;42.162;24.756;2023-06-14T08:07:20;99436.75;;;22.02;79.22
6387;BME280;3226;42.162;24.756;2023-06-14T08:09:48;99437.16;;;22.12;79.02
6387;BME280;3226;42.162;24.756;2023-06-14T08:12:16;99428.31;;;22.18;76.95
6387;BME280;3226;42.162;24.756;2023-06-14T08:14:45;99446.53;;;22.35;78.34
6387;BME280;3226;42.162;24.756;2023-06-14T08:17:27;99446.72;;;22.40;78.20
6387;BME280;3226;42.162;24.756;2023-06-14T08:19:55;99449.38;;;22.40;78.71
6387;BME280;3226;42.162;24.756;2023-06-14T08:22:23;99456.59;;;22.46;75.78
6387;BME280;3226;42.162;24.756;2023-06-14T08:24:52;99458.22;;;22.41;77.29
6387;BME280;3226;42.162;24.756;2023-06-14T08:27:20;99459.09;;;22.14;77.80
6387;BME280;3226;42.162;24.756;2023-06-14T08:29:50;99459.84;;;22.42;76.30
6387;BME280;3226;42.162;24.756;2023-06-14T08:32:18;99449.78;;;22.57;74.96
6387;BME280;3226;42.162;24.756;2023-06-14T08:34:46;99465.09;;;22.75;75.66
6387;BME280;3226;42.162;24.756;2023-06-14T08:37:30;99466.28;;;22.93;77.08
6387;BME280;3226;42.162;24.756;2023-06-14T08:39:58;99463.09;;;22.64;75.56
6387;BME280;3226;42.162;24.756;2023-06-14T08:42:26;99473.28;;;22.80;74.18
6387;BME280;3226;42.162;24.756;2023-06-14T08:44:59;99463.34;;;23.01;73.70
6387;BME280;3226;42.162;24.756;2023-06-14T08:47:27;99477.81;;;22.87;73.30
6387;BME280;3226;42.162;24.756;2023-06-14T08:50:08;99470.13;;;22.38;76.42
6387;BME280;3226;42.162;24.756;2023-06-14T08:52:54;99472.94;;;22.70;75.46
6387;BME280;3226;42.162;24.756;2023-06-14T08:55:24;99471.66;;;22.79;74.79
6387;BME280;3226;42.162;24.756;2023-06-14T08:57:55;99456.72;;;22.72;77.33
6387;BME280;3226;42.162;24.756;2023-06-14T09:00:27;99468.88;;;22.61;76.19
6387;BME280;3226;42.162;24.756;2023-06-14T09:02:55;99469.22;;;22.71;74.26
6387;BME280;3226;42.162;24.756;2023-06-14T09:05:24;99466.81;;;22.56;74.69
6387;BME280;3226;42.162;24.756;2023-06-14T09:07:53;99463.97;;;22.51;76.47
6387;BME280;3226;42.162;24.756;2023-06-14T09:10:25;99470.44;;;22.75;75.58
6387;BME280;3226;42.162;24.756;2023-06-14T09:12:56;99463.44;;;22.81;75.48
6387;BME280;3226;42.162;24.756;2023-06-14T09:15:27;99456.28;;;22.81;75.72
6387;BME280;3226;42.162;24.756;2023-06-14T09:17:56;99450.22;;;23.00;75.61
6387;BME280;3226;42.162;24.756;2023-06-14T09:20:24;99445.16;;;23.23;74.06
6387;BME280;3226;42.162;24.756;2023-06-14T09:22:53;99447.53;;;23.38;72.50
6387;BME280;3226;42.162;24.756;2023-06-14T09:25:21;99444.34;;;23.23;73.13
6387;BME280;3226;42.162;24.756;2023-06-14T09:28:06;99450.72;;;23.22;73.15
6387;BME280;3226;42.162;24.756;2023-06-14T09:30:37;99448.78;;;22.97;74.68
6387;BME280;3226;42.162;24.756;2023-06-14T09:33:05;99449.50;;;22.79;75.69
6387;BME280;3226;42.162;24.756;2023-06-14T09:35:34;99415.94;;;22.51;74.30
6387;BME280;3226;42.162;24.756;2023-06-14T09:38:02;99438.03;;;22.72;75.23
6387;BME280;3226;42.162;24.756;2023-06-14T09:40:34;99440.91;;;22.70;74.19
6387;BME280;3226;42.162;24.756;2023-06-14T09:43:04;99433.06;;;22.75;75.01
6387;BME280;3226;42.162;24.756;2023-06-14T09:45:33;99434.50;;;22.85;75.62
6387;BME280;3226;42.162;24.756;2023-06-14T09:48:04;99432.75;;;23.04;73.75
6387;BME280;3226;42.162;24.756;2023-06-14T09:50:34;99433.69;;;23.16;73.84
6387;BME280;3226;42.162;24.756;2023-06-14T09:53:03;99430.31;;;22.95;75.19
6387;BME280;3226;42.162;24.756;2023-06-14T09:55:35;99437.75;;;22.87;74.27
6387;BME280;3226;42.162;24.756;2023-06-14T09:58:05;99431.00;;;22.84;73.52
6387;BME280;3226;42.162;24.756;2023-06-14T10:00:35;99426.28;;;23.18;72.42
6387;BME280;3226;42.162;24.756;2023-06-14T10:03:13;99421.59;;;23.46;70.74
6387;BME280;3226;42.162;24.756;2023-06-14T10:05:43;99403.69;;;23.53;70.05
6387;BME280;3226;42.162;24.756;2023-06-14T10:08:14;99418.09;;;23.71;69.36
6387;BME280;3226;42.162;24.756;2023-06-14T10:10:46;99417.94;;;23.65;69.85
6387;BME280;3226;42.162;24.756;2023-06-14T10:13:15;99414.09;;;23.61;68.75
6387;BME280;3226;42.162;24.756;2023-06-14T10:15:57;99415.00;;;23.74;69.63
6387;BME280;3226;42.162;24.756;2023-06-14T10:18:33;99418.25;;;23.76;70.12
6387;BME280;3226;42.162;24.756;2023-06-14T10:21:08;99423.56;;;23.82;70.28
6387;BME280;3226;42.162;24.756;2023-06-14T10:23:42;99411.97;;;23.89;69.10
6387;BME280;3226;42.162;24.756;2023-06-14T10:26:18;99389.50;;;23.96;67.98
6387;BME280;3226;42.162;24.756;2023-06-14T10:28:58;99416.44;;;24.39;66.47
6387;BME280;3226;42.162;24.756;2023-06-14T10:31:40;99414.09;;;24.80;64.51
6387;BME280;3226;42.162;24.756;2023-06-14T10:34:11;99406.25;;;25.09;63.82
6387;BME280;3226;42.162;24.756;2023-06-14T10:36:42;99403.63;;;25.21;63.57
6387;BME280;3226;42.162;24.756;2023-06-14T10:39:15;99413.31;;;25.34;62.86
6387;BME280;3226;42.162;24.756;2023-06-14T10:41:51;99411.00;;;25.37;63.32
6387;BME280;3226;42.162;24.756;2023-06-14T10:44:43;99402.56;;;25.22;63.89
6387;BME280;3226;42.162;24.756;2023-06-14T10:47:23;99406.00;;;25.29;63.42
6387;BME280;3226;42.162;24.756;2023-06-14T10:49:54;99403.47;;;24.54;64.32
6387;BME280;3226;42.162;24.756;2023-06-14T10:52:25;99407.56;;;24.38;64.45
6387;BME280;3226;42.162;24.756;2023-06-14T10:55:11;99395.69;;;24.34;64.51
6387;BME280;3226;42.162;24.756;2023-06-14T10:57:43;99394.91;;;24.64;64.09
6387;BME280;3226;42.162;24.756;2023-06-14T11:00:19;99390.44;;;25.07;61.95
6387;BME280;3226;42.162;24.756;2023-06-14T11:03:28;99388.00;;;25.18;63.31
6387;BME280;3226;42.162;24.756;2023-06-14T11:06:00;99392.72;;;25.34;64.19
6387;BME280;3226;42.162;24.756;2023-06-14T11:08:46;99383.28;;;25.44;63.18
6387;BME280;3226;42.162;24.756;2023-06-14T11:11:17;99371.97;;;25.41;63.45
6387;BME280;3226;42.162;24.756;2023-06-14T11:13:46;99391.84;;;25.64;61.93
6387;BME280;3226;42.162;24.756;2023-06-14T11:16:16;99384.38;;;25.66;62.10
6387;BME280;3226;42.162;24.756;2023-06-14T11:18:46;99390.19;;;25.63;61.82
6387;BME280;3226;42.162;24.756;2023-06-14T11:21:17;99367.78;;;25.46;60.86
6387;BME280;3226;42.162;24.756;2023-06-14T11:23:49;99385.06;;;25.50;60.43
6387;BME280;3226;42.162;24.756;2023-06-14T11:26:25;99371.16;;;25.29;61.16
6387;BME280;3226;42.162;24.756;2023-06-14T11:28:57;99377.28;;;25.18;62.72
6387;BME280;3226;42.162;24.756;2023-06-14T11:31:26;99368.09;;;25.14;63.41
6387;BME280;3226;42.162;24.756;2023-06-14T11:33:55;99364.13;;;25.28;62.15
6387;BME280;3226;42.162;24.756;2023-06-14T11:36:27;99376.81;;;25.51;62.56
6387;BME280;3226;42.162;24.756;2023-06-14T11:39:00;99367.09;;;25.38;60.90
6387;BME280;3226;42.162;24.756;2023-06-14T11:41:34;99364.78;;;25.54;61.26
6387;BME280;3226;42.162;24.756;2023-06-14T11:44:02;99368.81;;;25.33;61.10
6387;BME280;3226;42.162;24.756;2023-06-14T11:46:30;99363.91;;;25.30;59.21
6387;BME280;3226;42.162;24.756;2023-06-14T11:48:58;99363.63;;;25.50;59.38
6387;BME280;3226;42.162;24.756;2023-06-14T11:51:31;99354.41;;;25.58;61.09
6387;BME280;3226;42.162;24.756;2023-06-14T11:54:00;99354.31;;;25.64;58.36
6387;BME280;3226;42.162;24.756;2023-06-14T11:56:29;99355.13;;;25.65;59.18
6387;BME280;3226;42.162;24.756;2023-06-14T11:58:59;99348.31;;;25.86;58.93
6387;BME280;3226;42.162;24.756;2023-06-14T12:01:29;99346.91;;;25.95;55.15
6387;BME280;3226;42.162;24.756;2023-06-14T12:03:59;99347.88;;;25.77;57.75
6387;BME280;3226;42.162;24.756;2023-06-14T12:06:29;99348.13;;;25.52;59.53
6387;BME280;3226;42.162;24.756;2023-06-14T12:09:03;99346.34;;;25.93;57.79
6387;BME280;3226;42.162;24.756;2023-06-14T12:11:34;99341.53;;;26.19;56.79
6387;BME280;3226;42.162;24.756;2023-06-14T12:14:03;99350.47;;;26.37;57.48
6387;BME280;3226;42.162;24.756;2023-06-14T12:16:33;99337.56;;;26.51;56.74
6387;BME280;3226;42.162;24.756;2023-06-14T12:19:12;99306.41;;;26.50;56.10
6387;BME280;3226;42.162;24.756;2023-06-14T12:21:40;99333.19;;;26.62;56.49
6387;BME280;3226;42.162;24.756;2023-06-14T12:24:12;99329.53;;;26.68;56.39
6387;BME280;3226;42.162;24.756;2023-06-14T12:26:41;99323.31;;;26.21;59.03
6387;BME280;3226;42.162;24.756;2023-06-14T12:29:09;99326.75;;;26.05;60.72
6387;BME280;3226;42.162;24.756;2023-06-14T12:31:39;99300.44;;;25.78;60.11
6387;BME280;3226;42.162;24.756;2023-06-14T12:34:07;99313.81;;;25.90;59.70
6387;BME280;3226;42.162;24.756;2023-06-14T12:36:35;99316.19;;;25.50;61.28
6387;BME280;3226;42.162;24.756;2023-06-14T12:39:10;99308.56;;;25.83;60.43
6387;BME280;3226;42.162;24.756;2023-06-14T12:41:38;99313.66;;;25.96;61.19
6387;BME280;3226;42.162;24.756;2023-06-14T12:44:08;99315.28;;;26.09;59.79
6387;BME280;3226;42.162;24.756;2023-06-14T12:46:36;99303.84;;;26.14;58.77
6387;BME280;3226;42.162;24.756;2023-06-14T12:49:08;99303.16;;;26.19;56.62
6387;BME280;3226;42.162;24.756;2023-06-14T12:51:36;99297.16;;;25.76;58.31
6387;BME280;3226;42.162;24.756;2023-06-14T12:54:04;99289.41;;;25.50;59.53
6387;BME280;3226;42.162;24.756;2023-06-14T12:56:33;99293.16;;;25.90;59.28
6387;BME280;3226;42.162;24.756;2023-06-14T12:59:01;99295.91;;;26.19;59.35
6387;BME280;3226;42.162;24.756;2023-06-14T13:01:29;99288.06;;;26.30;58.86
6387;BME280;3226;42.162;24.756;2023-06-14T13:03:57;99283.59;;;26.35;58.17
6387;BME280;3226;42.162;24.756;2023-06-14T13:06:25;99282.69;;;26.30;58.28
6387;BME280;3226;42.162;24.756;2023-06-14T13:08:53;99288.78;;;26.13;58.29
6387;BME280;3226;42.162;24.756;2023-06-14T13:11:24;99287.44;;;25.98;57.82
6387;BME280;3226;42.162;24.756;2023-06-14T13:13:54;99276.66;;;25.81;56.40
6387;BME280;3226;42.162;24.756;2023-06-14T13:16:22;99293.25;;;25.95;56.29
6387;BME280;3226;42.162;24.756;2023-06-14T13:18:50;99292.22;;;25.96;55.56
6387;BME280;3226;42.162;24.756;2023-06-14T13:21:18;99286.59;;;26.10;54.42